createdAt,value
2023-05-22T00:01:37.914Z,4.35
2023-05-22T00:06:43.093Z,5.47
2023-05-22T00:11:46.161Z,4.95
2023-05-22T00:16:47.878Z,5.22
2023-05-22T00:21:49.616Z,4.85
2023-05-22T00:26:53.645Z,5.55
2023-05-22T00:31:55.343Z,5.25
2023-05-22T00:36:56.989Z,5.90
2023-05-22T00:42:00.624Z,5.38
2023-05-22T00:47:02.402Z,5.72
2023-05-22T00:52:04.706Z,4.95
2023-05-22T00:57:07.783Z,5.47
2023-05-22T01:02:09.783Z,5.70
2023-05-22T01:07:11.570Z,4.30
2023-05-22T01:12:20.733Z,5.70
2023-05-22T01:17:32.296Z,6.00
2023-05-22T01:22:56.963Z,5.18
2023-05-22T01:28:30.394Z,4.65
2023-05-22T01:33:41.254Z,5.68
2023-05-22T01:38:43.704Z,4.90
2023-05-22T01:43:46.379Z,4.78
2023-05-22T01:48:49.461Z,4.80
2023-05-22T01:53:55.293Z,5.25
2023-05-22T01:59:03.232Z,6.38
2023-05-22T02:04:06.969Z,5.30
2023-05-22T02:09:10.156Z,5.80
2023-05-22T02:14:11.908Z,5.05
2023-05-22T02:19:15.404Z,5.88
2023-05-22T02:24:18.315Z,5.95
2023-05-22T02:29:20.039Z,5.93
2023-05-22T02:34:23.103Z,5.40
2023-05-22T02:39:24.782Z,5.82
2023-05-22T02:44:26.489Z,4.90
2023-05-22T02:49:29.538Z,5.55
2023-05-22T02:54:31.211Z,5.47
2023-05-22T02:59:32.933Z,5.82
2023-05-22T03:04:36.011Z,5.32
2023-05-22T03:09:37.680Z,6.22
2023-05-22T03:14:39.429Z,5.50
2023-05-22T03:19:42.489Z,5.55
2023-05-22T03:24:44.133Z,5.82
2023-05-22T03:29:45.796Z,6.80
2023-05-22T03:34:48.870Z,7.10
2023-05-22T03:39:50.581Z,7.03
2023-05-22T03:44:52.279Z,6.35
2023-05-22T03:49:55.377Z,6.75
2023-05-22T03:54:57.085Z,6.10
2023-05-22T03:59:58.740Z,6.72
2023-05-22T04:05:01.769Z,6.40
2023-05-22T04:10:04.197Z,6.97
2023-05-22T04:15:07.178Z,7.40
2023-05-22T04:20:11.084Z,6.53
2023-05-22T04:25:13.068Z,5.88
2023-05-22T04:30:15.434Z,6.43
2023-05-22T04:35:18.714Z,6.55
2023-05-22T04:40:20.693Z,5.63
2023-05-22T04:45:22.380Z,6.07
2023-05-22T04:50:25.455Z,5.10
2023-05-22T04:55:28.848Z,6.60
2023-05-22T05:01:01.425Z,6.32
2023-05-22T05:06:14.396Z,6.03
2023-05-22T05:11:16.090Z,5.07
2023-05-22T05:16:17.849Z,5.68
2023-05-22T05:21:21.228Z,4.95
2023-05-22T05:26:22.955Z,5.50
2023-05-22T05:31:24.807Z,6.40
2023-05-22T05:36:28.096Z,6.18
2023-05-22T05:41:29.786Z,6.40
2023-05-22T05:46:31.691Z,8.77
2023-05-22T05:51:34.828Z,7.72
2023-05-22T05:56:36.759Z,7.30
2023-05-22T06:01:38.634Z,8.23
2023-05-22T06:06:42.007Z,6.82
2023-05-22T06:11:43.632Z,7.63
2023-05-22T06:16:45.344Z,7.43
2023-05-22T06:21:49.824Z,7.82
2023-05-22T06:26:53.229Z,7.32
2023-05-22T06:31:54.956Z,6.65
2023-05-22T06:36:58.097Z,7.95
2023-05-22T06:41:59.916Z,8.73
2023-05-22T06:47:01.667Z,8.05
2023-05-22T06:52:05.578Z,7.75
2023-05-22T06:57:07.276Z,8.02
2023-05-22T07:02:08.988Z,7.35
2023-05-22T07:07:12.004Z,8.38
2023-05-22T07:12:13.726Z,8.52
2023-05-22T07:17:15.386Z,8.25
2023-05-22T07:22:18.470Z,8.55
2023-05-22T07:27:20.290Z,8.20
2023-05-22T07:32:22.002Z,9.27
2023-05-22T07:37:25.189Z,11.38
2023-05-22T07:42:26.874Z,11.20
2023-05-22T07:47:28.690Z,10.18
2023-05-22T07:52:31.850Z,11.18
2023-05-22T07:57:33.602Z,10.43
2023-05-22T08:02:35.407Z,10.77
2023-05-22T08:07:38.534Z,10.07
2023-05-22T08:12:40.278Z,10.65
2023-05-22T08:17:42.010Z,8.68
2023-05-22T08:22:45.067Z,9.70
2023-05-22T08:27:46.740Z,9.82
2023-05-22T08:32:48.436Z,9.82
2023-05-22T08:37:51.566Z,10.65
2023-05-22T08:42:53.282Z,10.07
2023-05-22T08:47:57.196Z,10.23
2023-05-22T08:53:01.296Z,8.70
2023-05-22T08:58:04.600Z,10.30
2023-05-22T09:03:06.592Z,9.45
2023-05-22T09:08:19.590Z,7.97
2023-05-22T09:13:26.213Z,10.03
2023-05-22T09:18:28.678Z,8.13
2023-05-22T09:23:31.954Z,8.85
2023-05-22T09:28:35.122Z,9.57
2023-05-22T09:33:37.274Z,9.60
2023-05-22T09:38:40.479Z,9.23
2023-05-22T09:43:50.249Z,8.85
2023-05-22T09:48:52.133Z,8.88
2023-05-22T09:54:02.638Z,9.50
2023-05-22T09:59:07.263Z,8.45
2023-05-22T10:04:12.920Z,7.80
2023-05-22T10:09:19.239Z,9.75
2023-05-22T10:14:22.949Z,9.13
2023-05-22T10:19:25.401Z,9.43
2023-05-22T10:24:29.531Z,9.38
2023-05-22T10:29:36.594Z,8.27
2023-05-22T10:34:49.249Z,8.82
2023-05-22T10:40:02.112Z,8.35
2023-05-22T10:45:08.363Z,7.90
2023-05-22T10:50:11.746Z,7.57
2023-05-22T10:55:14.934Z,8.32
2023-05-22T11:00:24.177Z,7.20
2023-05-22T11:05:36.107Z,7.20
2023-05-22T11:10:55.633Z,8.48
2023-05-22T11:15:58.691Z,8.27
2023-05-22T11:21:00.406Z,8.43
2023-05-22T11:26:18.594Z,7.60
2023-05-22T11:31:20.819Z,8.18
2023-05-22T11:36:24.971Z,8.35
2023-05-22T11:41:33.866Z,7.30
2023-05-22T11:46:36.003Z,6.68
2023-05-22T11:51:38.654Z,7.07
2023-05-22T11:56:41.872Z,7.80
2023-05-22T12:01:43.585Z,7.88
2023-05-22T12:06:45.667Z,7.68
2023-05-22T12:11:49.296Z,7.53
2023-05-22T12:16:52.522Z,8.23
2023-05-22T12:21:54.697Z,7.38
2023-05-22T12:26:57.752Z,8.82
2023-05-22T12:32:02.664Z,7.45
2023-05-22T12:42:07.744Z,8.18
2023-05-22T12:47:09.438Z,7.35
2023-05-22T12:52:11.090Z,8.70
2023-05-22T12:57:14.256Z,7.18
2023-05-22T13:02:15.933Z,8.50
2023-05-22T13:07:20.602Z,8.75
2023-05-22T13:12:23.821Z,8.88
2023-05-22T13:17:25.620Z,7.85
2023-05-22T13:22:27.366Z,9.13
2023-05-22T13:27:32.742Z,7.47
2023-05-22T13:32:35.408Z,8.32
2023-05-22T13:37:37.308Z,8.38
2023-05-22T13:42:40.370Z,9.10
2023-05-22T13:47:42.105Z,9.02
2023-05-22T13:52:45.965Z,8.85
2023-05-22T13:57:49.016Z,8.70
2023-05-22T14:02:50.741Z,9.35
2023-05-22T14:07:52.463Z,9.27
2023-05-22T14:12:55.609Z,10.20
2023-05-22T14:17:57.335Z,9.35
2023-05-22T14:23:02.031Z,10.50
2023-05-22T14:28:05.133Z,9.63
2023-05-22T14:33:07.152Z,9.75
2023-05-22T14:38:11.928Z,9.70
2023-05-22T14:43:15.847Z,8.43
2023-05-22T14:48:17.573Z,8.13
2023-05-22T14:53:19.395Z,5.35
2023-05-22T14:58:22.455Z,6.30
2023-05-22T15:03:26.891Z,6.15
2023-05-22T15:08:28.587Z,6.53
2023-05-22T15:13:31.598Z,9.02
2023-05-22T15:18:33.323Z,6.50
2023-05-22T15:23:35.240Z,7.35
2023-05-22T15:28:38.277Z,5.53
2023-05-22T15:33:39.931Z,5.63
2023-05-22T15:38:41.625Z,5.57
2023-05-22T15:43:44.706Z,6.95
2023-05-22T15:48:46.509Z,6.38
2023-05-22T15:53:48.196Z,7.30
2023-05-22T15:58:51.281Z,7.57
2023-05-22T16:03:53.206Z,7.47
2023-05-22T16:08:54.992Z,6.88
2023-05-22T16:13:58.066Z,6.78
2023-05-22T16:18:59.814Z,6.32
2023-05-22T16:24:01.553Z,6.70
2023-05-22T16:29:07.069Z,6.88
2023-05-22T16:34:08.752Z,7.00
2023-05-22T16:39:10.464Z,7.78
2023-05-22T16:44:13.585Z,7.20
2023-05-22T16:49:15.301Z,7.60
2023-05-22T16:54:17.007Z,7.05
2023-05-22T16:59:20.242Z,8.40
2023-05-22T17:04:22.004Z,7.55
2023-05-22T17:09:26.579Z,8.15
2023-05-22T17:14:33.411Z,7.35
2023-05-22T17:19:35.328Z,7.85
2023-05-22T17:24:37.087Z,9.55
2023-05-22T17:29:40.248Z,8.02
2023-05-22T17:34:41.960Z,7.55
2023-05-22T17:39:43.674Z,7.90
2023-05-22T17:44:46.724Z,7.18
2023-05-22T17:49:48.404Z,8.82
2023-05-22T17:54:50.119Z,8.07
2023-05-22T17:59:53.220Z,8.10
2023-05-22T18:04:54.906Z,7.90
2023-05-22T18:09:56.707Z,8.25
2023-05-22T18:14:59.785Z,8.98
2023-05-22T18:20:01.503Z,9.18
2023-05-22T18:25:03.292Z,9.90
2023-05-22T18:30:10.423Z,9.77
2023-05-22T18:35:12.138Z,9.73
2023-05-22T18:40:13.907Z,11.57
2023-05-22T18:45:16.981Z,12.15
2023-05-22T18:50:18.909Z,12.38
2023-05-22T18:55:23.393Z,14.00
2023-05-22T19:00:26.466Z,12.77
2023-05-22T19:05:28.172Z,12.35
2023-05-22T19:10:29.863Z,13.52
2023-05-22T19:15:33.464Z,11.25
2023-05-22T19:20:38.373Z,12.55
2023-05-22T19:25:40.169Z,12.15
2023-05-22T19:30:43.555Z,13.07
2023-05-22T19:35:45.537Z,12.45
2023-05-22T19:40:47.210Z,15.07
2023-05-22T19:45:50.600Z,12.98
2023-05-22T19:50:52.284Z,14.88
2023-05-22T19:55:53.981Z,13.65
2023-05-22T20:00:57.084Z,16.75
2023-05-22T20:05:58.828Z,15.15
2023-05-22T20:11:00.472Z,17.25
2023-05-22T20:16:03.725Z,14.02
2023-05-22T20:21:05.484Z,16.05
2023-05-22T20:26:07.200Z,18.13
2023-05-22T20:31:10.260Z,16.63
2023-05-22T20:36:11.973Z,17.63
2023-05-22T20:41:13.676Z,18.52
2023-05-22T20:46:16.778Z,19.02
2023-05-22T20:51:18.487Z,18.00
2023-05-22T20:56:20.216Z,18.50
2023-05-22T21:01:24.038Z,15.60
2023-05-22T21:06:25.699Z,14.80
2023-05-22T21:11:27.932Z,15.60
2023-05-22T21:16:30.950Z,15.30
2023-05-22T21:21:32.640Z,14.23
2023-05-22T21:26:34.353Z,15.02
2023-05-22T21:31:37.686Z,14.90
2023-05-22T21:36:39.424Z,14.25
2023-05-22T21:41:41.281Z,13.52
2023-05-22T21:46:44.404Z,10.98
2023-05-22T21:51:46.074Z,12.45
2023-05-22T21:56:47.798Z,12.15
2023-05-22T22:01:50.858Z,11.45
2023-05-22T22:06:52.577Z,12.23
2023-05-22T22:11:54.276Z,9.55
2023-05-22T22:16:57.398Z,9.93
2023-05-22T22:21:59.126Z,9.57
2023-05-22T22:27:00.841Z,9.82
2023-05-22T22:32:04.179Z,10.32
2023-05-22T22:37:06.126Z,9.57
2023-05-22T22:42:08.008Z,8.32
2023-05-22T22:47:11.075Z,9.52
2023-05-22T22:52:12.748Z,9.35
2023-05-22T22:57:14.623Z,8.73
2023-05-22T23:02:17.736Z,9.48
2023-05-22T23:07:19.396Z,8.43
2023-05-22T23:12:21.075Z,10.02
2023-05-22T23:17:24.106Z,8.70
2023-05-22T23:22:25.774Z,7.75
2023-05-22T23:27:27.447Z,8.25
2023-05-22T23:32:30.534Z,7.82
2023-05-22T23:37:32.238Z,9.35
2023-05-22T23:42:33.960Z,9.85
2023-05-22T23:47:37.210Z,10.35
2023-05-22T23:52:39.051Z,12.02
2023-05-22T23:57:40.739Z,10.40
